createdAt,value
2022-08-05T00:00:26.759Z,18.75
2022-08-05T00:01:21.023Z,17.83
2022-08-05T00:02:07.905Z,17.40
2022-08-05T00:02:51.512Z,18.08
2022-08-05T00:03:29.016Z,18.80
2022-08-05T00:04:08.387Z,18.30
2022-08-05T00:04:43.222Z,18.08
2022-08-05T00:06:01.740Z,18.48
2022-08-05T00:06:29.063Z,19.67
2022-08-05T00:07:27.122Z,17.90
2022-08-05T00:08:02.920Z,18.17
2022-08-05T00:08:38.736Z,18.67
2022-08-05T00:09:15.900Z,18.33
2022-08-05T00:09:54.615Z,17.42
2022-08-05T00:10:29.480Z,17.95
2022-08-05T00:11:04.474Z,17.40
2022-08-05T00:11:59.824Z,18.45
2022-08-05T00:12:34.720Z,18.20
2022-08-05T00:13:39.206Z,19.02
2022-08-05T00:14:17.268Z,19.73
2022-08-05T00:14:52.040Z,19.80
2022-08-05T00:15:57.546Z,18.52
2022-08-05T00:16:35.953Z,18.75
2022-08-05T00:17:56.204Z,18.20
2022-08-05T00:18:30.844Z,16.65
2022-08-05T00:19:04.533Z,16.85
2022-08-05T00:19:44.065Z,19.00
2022-08-05T00:20:33.246Z,18.88
2022-08-05T00:21:08.421Z,19.02
2022-08-05T00:21:43.488Z,19.20
2022-08-05T00:22:19.848Z,17.77
2022-08-05T00:22:55.269Z,18.45
2022-08-05T00:23:45.797Z,18.52
2022-08-05T00:24:31.094Z,19.25
2022-08-05T00:25:08.413Z,18.63
2022-08-05T00:25:46.387Z,18.38
2022-08-05T00:26:20.982Z,18.88
2022-08-05T00:26:58.611Z,17.00
2022-08-05T00:27:36.118Z,18.08
2022-08-05T00:28:10.550Z,19.60
2022-08-05T00:28:49.290Z,18.67
2022-08-05T00:29:25.515Z,18.88
2022-08-05T00:30:03.115Z,18.60
2022-08-05T00:30:39.537Z,18.33
2022-08-05T00:31:15.794Z,18.52
2022-08-05T00:32:11.051Z,18.50
2022-08-05T00:32:47.197Z,18.65
2022-08-05T00:34:55.635Z,18.15
2022-08-05T00:34:56.987Z,18.02
2022-08-05T00:35:12.275Z,19.00
2022-08-05T00:36:16.647Z,18.83
2022-08-05T00:37:12.553Z,17.60
2022-08-05T00:37:52.393Z,19.20
2022-08-05T00:38:33.726Z,18.73
2022-08-05T00:39:13.659Z,18.05
2022-08-05T00:39:58.600Z,19.60
2022-08-05T00:40:35.379Z,20.02
2022-08-05T00:41:29.548Z,18.75
2022-08-05T00:42:32.619Z,18.13
2022-08-05T00:43:07.731Z,18.42
2022-08-05T00:43:47.070Z,19.23
2022-08-05T00:44:30.575Z,19.30
2022-08-05T00:45:08.389Z,18.15
2022-08-05T00:45:44.940Z,18.25
2022-08-05T00:46:42.797Z,17.63
2022-08-05T00:47:18.603Z,18.15
2022-08-05T00:47:56.263Z,18.02
2022-08-05T00:48:31.828Z,17.80
2022-08-05T00:49:08.045Z,19.20
2022-08-05T00:49:51.691Z,18.35
2022-08-05T00:50:25.836Z,19.83
2022-08-05T00:51:01.217Z,17.88
2022-08-05T00:51:51.832Z,17.55
2022-08-05T00:52:28.766Z,18.75
2022-08-05T00:53:09.821Z,18.50
2022-08-05T00:54:02.171Z,17.83
2022-08-05T00:54:38.669Z,18.30
2022-08-05T00:55:13.737Z,18.90
2022-08-05T00:55:48.496Z,18.20
2022-08-05T00:56:23.415Z,19.67
2022-08-05T00:56:57.774Z,18.83
2022-08-05T00:57:55.263Z,19.10
2022-08-05T00:58:28.241Z,19.35
2022-08-05T00:59:03.090Z,18.88
2022-08-05T00:59:44.597Z,18.13
2022-08-05T01:00:25.943Z,18.13
2022-08-05T01:01:08.824Z,19.17
2022-08-05T01:01:48.685Z,18.17
2022-08-05T01:02:24.537Z,18.15
2022-08-05T01:03:00.064Z,17.92
2022-08-05T01:03:35.955Z,18.58
2022-08-05T01:04:14.287Z,19.30
2022-08-05T01:04:50.681Z,19.15
2022-08-05T01:05:27.560Z,19.27
2022-08-05T01:06:03.856Z,18.73
2022-08-05T01:06:38.797Z,19.73
2022-08-05T01:07:13.944Z,19.02
2022-08-05T01:08:40.529Z,19.42
2022-08-05T01:08:47.377Z,18.80
2022-08-05T01:09:22.685Z,19.30
2022-08-05T01:09:58.188Z,18.77
2022-08-05T01:10:35.340Z,18.13
2022-08-05T01:11:13.770Z,19.00
2022-08-05T01:11:51.720Z,18.58
2022-08-05T01:12:29.688Z,18.95
2022-08-05T01:13:13.342Z,18.63
2022-08-05T01:14:01.469Z,18.10
2022-08-05T01:14:36.561Z,18.70
2022-08-05T01:15:35.489Z,19.95
2022-08-05T01:16:09.131Z,18.73
2022-08-05T01:16:49.243Z,17.75
2022-08-05T01:17:28.943Z,19.15
2022-08-05T01:18:07.091Z,18.75
2022-08-05T01:18:48.176Z,19.30
2022-08-05T01:20:01.137Z,18.95
2022-08-05T01:20:33.675Z,18.35
2022-08-05T01:21:22.729Z,19.17
2022-08-05T01:22:06.164Z,18.70
2022-08-05T01:22:57.653Z,18.58
2022-08-05T01:24:13.223Z,18.13
2022-08-05T01:25:02.639Z,19.17
2022-08-05T01:25:56.621Z,18.13
2022-08-05T01:26:38.766Z,19.00
2022-08-05T01:27:22.416Z,18.35
2022-08-05T01:28:19.049Z,18.15
2022-08-05T01:28:55.926Z,18.15
2022-08-05T01:29:35.060Z,17.90
2022-08-05T01:30:17.790Z,19.63
2022-08-05T01:30:56.022Z,17.75
2022-08-05T01:31:44.621Z,18.35
2022-08-05T01:32:22.057Z,17.98
2022-08-05T01:32:59.456Z,18.38
2022-08-05T01:33:36.317Z,19.25
2022-08-05T01:34:15.508Z,17.90
2022-08-05T01:34:54.633Z,18.77
2022-08-05T01:35:51.176Z,18.52
2022-08-05T01:36:30.508Z,19.33
2022-08-05T01:37:05.641Z,17.88
2022-08-05T01:37:44.278Z,17.83
2022-08-05T01:38:27.180Z,18.98
2022-08-05T01:39:03.989Z,18.52
2022-08-05T01:39:46.087Z,19.17
2022-08-05T01:40:28.926Z,19.45
2022-08-05T01:41:04.601Z,18.67
2022-08-05T01:41:44.399Z,19.55
2022-08-05T01:42:21.334Z,18.92
2022-08-05T01:42:56.022Z,18.33
2022-08-05T01:43:34.803Z,19.10
2022-08-05T01:44:11.311Z,18.30
2022-08-05T01:44:53.865Z,18.92
2022-08-05T01:45:34.783Z,19.25
2022-08-05T01:46:43.112Z,18.80
2022-08-05T01:47:13.914Z,18.58
2022-08-05T01:47:54.422Z,19.73
2022-08-05T01:48:31.859Z,19.25
2022-08-05T01:49:23.352Z,18.52
2022-08-05T01:50:02.878Z,19.17
2022-08-05T01:50:39.197Z,18.55
2022-08-05T01:51:14.402Z,18.25
2022-08-05T01:51:51.786Z,19.63
2022-08-05T01:52:27.036Z,18.08
2022-08-05T01:53:02.245Z,19.63
2022-08-05T01:53:57.433Z,18.73
2022-08-05T01:54:46.123Z,19.08
2022-08-05T01:55:23.127Z,18.77
2022-08-05T01:56:00.325Z,19.15
2022-08-05T01:58:09.488Z,18.30
2022-08-05T01:58:10.297Z,19.40
2022-08-05T01:58:40.928Z,18.63
2022-08-05T01:59:26.071Z,18.75
2022-08-05T02:00:02.069Z,18.40
2022-08-05T02:00:39.561Z,19.77
2022-08-05T02:01:17.134Z,19.55
2022-08-05T02:02:00.534Z,19.23
2022-08-05T02:02:37.658Z,20.10
2022-08-05T02:03:29.141Z,19.63
2022-08-05T02:04:08.842Z,18.55
2022-08-05T02:04:49.694Z,20.60
2022-08-05T02:05:28.563Z,18.48
2022-08-05T02:06:33.676Z,19.35
2022-08-05T02:07:03.513Z,19.52
2022-08-05T02:07:40.570Z,19.48
2022-08-05T02:08:14.582Z,19.60
2022-08-05T02:09:05.842Z,20.52
2022-08-05T02:09:40.764Z,19.10
2022-08-05T02:10:17.524Z,19.58
2022-08-05T02:10:55.905Z,19.48
2022-08-05T02:11:34.262Z,18.77
2022-08-05T02:12:11.277Z,19.08
2022-08-05T02:12:50.902Z,18.23
2022-08-05T02:13:48.701Z,19.40
2022-08-05T02:14:29.203Z,18.85
2022-08-05T02:15:12.163Z,18.88
2022-08-05T02:15:48.469Z,18.80
2022-08-05T02:16:25.964Z,18.50
2022-08-05T02:17:06.108Z,19.88
2022-08-05T02:18:30.646Z,19.55
2022-08-05T02:18:45.663Z,19.42
2022-08-05T02:19:25.989Z,20.13
2022-08-05T02:20:03.063Z,19.67
2022-08-05T02:20:43.198Z,18.90
2022-08-05T02:21:23.473Z,19.40
2022-08-05T02:22:00.484Z,19.08
2022-08-05T02:22:39.452Z,19.50
2022-08-05T02:23:16.895Z,19.67
2022-08-05T02:23:54.137Z,20.17
2022-08-05T02:24:31.601Z,18.75
2022-08-05T02:25:07.479Z,19.77
2022-08-05T02:25:49.260Z,19.17
2022-08-05T02:26:26.766Z,18.75
2022-08-05T02:27:10.018Z,20.02
2022-08-05T02:27:57.991Z,20.27
2022-08-05T02:28:38.401Z,18.98
2022-08-05T02:29:24.133Z,19.85
2022-08-05T02:30:04.028Z,19.70
2022-08-05T02:30:51.883Z,19.83
2022-08-05T02:31:34.808Z,20.08
2022-08-05T02:32:10.737Z,19.83
2022-08-05T02:32:48.909Z,20.20
2022-08-05T02:33:38.670Z,20.10
2022-08-05T02:34:13.553Z,20.67
2022-08-05T02:34:51.717Z,20.60
2022-08-05T02:35:33.190Z,19.83
2022-08-05T02:36:15.692Z,20.60
2022-08-05T02:36:52.865Z,20.85
2022-08-05T02:37:28.465Z,20.58
2022-08-05T02:38:09.348Z,20.30
2022-08-05T02:38:45.244Z,19.52
2022-08-05T02:39:32.845Z,19.27
2022-08-05T02:40:09.511Z,22.92
2022-08-05T02:40:44.252Z,21.10
2022-08-05T02:41:20.281Z,21.05
2022-08-05T02:42:01.271Z,20.50
2022-08-05T02:42:38.347Z,20.88
2022-08-05T02:43:12.771Z,20.83
2022-08-05T02:44:02.478Z,20.38
2022-08-05T02:44:41.236Z,19.75
2022-08-05T02:45:19.257Z,19.98
2022-08-05T02:45:59.157Z,19.88
2022-08-05T02:46:35.919Z,20.33
2022-08-05T02:48:06.811Z,20.70
2022-08-05T02:48:29.337Z,20.02
2022-08-05T02:49:05.851Z,20.27
2022-08-05T02:49:45.652Z,20.25
2022-08-05T02:50:19.571Z,21.15
2022-08-05T02:50:55.086Z,20.77
2022-08-05T02:52:03.251Z,21.25
2022-08-05T02:52:30.077Z,19.95
2022-08-05T02:53:04.820Z,20.90
2022-08-05T02:53:46.415Z,20.98
2022-08-05T02:54:34.531Z,20.30
2022-08-05T02:55:12.299Z,21.20
2022-08-05T02:55:54.093Z,20.70
2022-08-05T02:56:33.987Z,21.08
2022-08-05T02:57:10.311Z,20.48
2022-08-05T02:58:09.834Z,20.75
2022-08-05T02:59:30.234Z,20.90
2022-08-05T03:00:25.596Z,20.95
2022-08-05T03:01:03.759Z,21.55
2022-08-05T03:01:41.402Z,20.63
2022-08-05T03:02:18.931Z,21.58
2022-08-05T03:02:56.729Z,21.65
2022-08-05T03:03:34.376Z,21.23
2022-08-05T03:04:26.057Z,21.52
2022-08-05T03:05:02.064Z,21.80
2022-08-05T03:06:55.815Z,21.52
2022-08-05T03:06:56.160Z,20.77
2022-08-05T03:08:01.213Z,20.85
2022-08-05T03:08:29.669Z,21.30
2022-08-05T03:09:04.289Z,21.60
2022-08-05T03:09:51.439Z,21.45
2022-08-05T03:10:28.659Z,21.75
2022-08-05T03:11:57.217Z,20.85
2022-08-05T03:11:58.389Z,21.73
2022-08-05T03:12:32.588Z,20.83
2022-08-05T03:13:16.910Z,22.10
2022-08-05T03:14:03.383Z,21.13
2022-08-05T03:14:45.563Z,21.17
2022-08-05T03:15:21.484Z,22.90
2022-08-05T03:15:59.643Z,23.48
2022-08-05T03:16:35.812Z,21.92
2022-08-05T03:17:11.870Z,21.02
2022-08-05T03:17:46.568Z,22.02
2022-08-05T03:18:24.789Z,20.70
2022-08-05T03:19:12.831Z,21.98
2022-08-05T03:19:51.510Z,21.92
2022-08-05T03:20:27.493Z,22.70
2022-08-05T03:21:01.877Z,22.65
2022-08-05T03:21:41.587Z,24.95
2022-08-05T03:22:32.302Z,22.30
2022-08-05T03:23:07.821Z,21.08
2022-08-05T03:23:45.617Z,21.73
2022-08-05T03:24:29.640Z,21.13
2022-08-05T03:25:33.937Z,20.67
2022-08-05T03:26:04.339Z,22.05
2022-08-05T03:26:55.520Z,20.52
2022-08-05T03:27:58.051Z,21.33
2022-08-05T03:28:24.541Z,20.13
2022-08-05T03:28:59.441Z,22.08
2022-08-05T03:29:45.854Z,24.23
2022-08-05T03:30:30.261Z,22.15
2022-08-05T03:31:25.896Z,21.63
2022-08-05T03:32:08.697Z,22.02
2022-08-05T03:32:43.305Z,22.17
2022-08-05T03:33:18.808Z,24.17
2022-08-05T03:33:53.448Z,21.38
2022-08-05T03:34:28.944Z,21.25
2022-08-05T03:35:04.438Z,19.90
2022-08-05T03:35:41.624Z,21.20
2022-08-05T03:36:15.701Z,39.35
2022-08-05T03:36:51.285Z,33.97
2022-08-05T03:37:26.982Z,23.08
2022-08-05T03:38:01.025Z,20.15
2022-08-05T03:38:37.390Z,20.50
2022-08-05T03:39:19.844Z,21.52
2022-08-05T03:39:59.124Z,20.52
2022-08-05T03:40:35.998Z,20.00
2022-08-05T03:41:12.387Z,20.50
2022-08-05T03:41:46.979Z,19.00
2022-08-05T03:42:23.101Z,20.35
2022-08-05T03:43:58.323Z,19.48
2022-08-05T03:44:09.636Z,18.10
2022-08-05T03:44:46.712Z,18.40
2022-08-05T03:45:23.392Z,18.13
2022-08-05T03:45:59.178Z,18.48
2022-08-05T03:46:36.457Z,18.05
2022-08-05T03:47:10.594Z,19.00
2022-08-05T03:47:49.333Z,19.23
2022-08-05T03:48:23.581Z,18.98
2022-08-05T03:48:57.634Z,19.65
2022-08-05T03:49:51.980Z,20.05
2022-08-05T03:50:28.885Z,19.05
2022-08-05T03:52:37.149Z,19.48
2022-08-05T03:52:49.193Z,18.23
2022-08-05T03:55:00.072Z,18.52
2022-08-05T03:55:34.230Z,19.85
2022-08-05T03:55:50.220Z,17.83
2022-08-05T03:56:12.080Z,19.25
2022-08-05T03:56:50.612Z,19.17
2022-08-05T03:57:42.458Z,18.35
2022-08-05T03:58:20.022Z,18.20
2022-08-05T03:59:04.556Z,18.17
2022-08-05T03:59:46.788Z,18.48
2022-08-05T04:00:32.750Z,18.88
2022-08-05T04:01:11.186Z,18.55
2022-08-05T04:01:50.285Z,17.35
2022-08-05T04:02:38.289Z,17.65
2022-08-05T04:03:28.304Z,16.92
2022-08-05T04:04:09.737Z,16.60
2022-08-05T04:04:45.626Z,17.42
2022-08-05T04:05:21.106Z,17.05
2022-08-05T04:05:59.836Z,15.90
2022-08-05T04:06:35.514Z,18.05
2022-08-05T04:07:12.386Z,17.80
2022-08-05T04:07:58.000Z,17.27
2022-08-05T04:08:36.205Z,16.98
2022-08-05T04:09:13.681Z,18.10
2022-08-05T04:09:54.084Z,17.73
2022-08-05T04:10:37.140Z,17.25
2022-08-05T04:11:13.669Z,18.85
2022-08-05T04:11:52.772Z,16.77
2022-08-05T04:12:27.517Z,17.50
2022-08-05T04:13:04.583Z,16.48
2022-08-05T04:13:49.825Z,17.50
2022-08-05T04:14:29.514Z,17.67
2022-08-05T04:15:06.004Z,18.42
2022-08-05T04:16:02.752Z,17.70
2022-08-05T04:16:38.094Z,17.30
2022-08-05T04:17:15.715Z,16.83
2022-08-05T04:17:56.717Z,17.23
2022-08-05T04:18:34.490Z,17.42
2022-08-05T04:19:14.316Z,17.50
2022-08-05T04:19:54.453Z,17.95
2022-08-05T04:20:32.978Z,16.25
2022-08-05T04:21:11.099Z,16.70
2022-08-05T04:22:09.916Z,17.00
2022-08-05T04:22:40.653Z,16.60
2022-08-05T04:23:16.315Z,17.17
2022-08-05T04:24:05.273Z,17.40
2022-08-05T04:24:44.453Z,16.77
2022-08-05T04:25:38.707Z,16.13
2022-08-05T04:26:21.724Z,17.55
2022-08-05T04:26:58.271Z,17.52
2022-08-05T04:27:42.091Z,17.90
2022-08-05T04:28:30.637Z,17.40
2022-08-05T04:29:07.368Z,16.48
2022-08-05T04:29:42.501Z,17.65
2022-08-05T04:30:16.298Z,17.60
2022-08-05T04:30:50.765Z,17.50
2022-08-05T04:31:27.639Z,17.27
2022-08-05T04:32:14.766Z,17.05
2022-08-05T04:32:55.855Z,17.05
2022-08-05T04:33:54.468Z,18.55
2022-08-05T04:34:32.733Z,18.98
2022-08-05T04:35:17.544Z,19.25
2022-08-05T04:36:10.640Z,18.02
2022-08-05T04:36:50.484Z,17.35
2022-08-05T04:38:01.169Z,19.25
2022-08-05T04:38:19.288Z,17.98
2022-08-05T04:38:55.531Z,17.83
2022-08-05T04:39:32.183Z,17.73
2022-08-05T04:40:07.860Z,18.02
2022-08-05T04:40:44.547Z,17.50
2022-08-05T04:41:34.103Z,17.95
2022-08-05T04:42:10.937Z,17.77
2022-08-05T04:42:46.999Z,18.27
2022-08-05T04:43:22.429Z,17.77
2022-08-05T04:43:57.003Z,17.85
2022-08-05T04:44:33.295Z,17.92
2022-08-05T04:45:08.466Z,16.92
2022-08-05T04:45:55.029Z,17.42
2022-08-05T04:46:30.203Z,17.80
2022-08-05T04:47:09.107Z,17.02
2022-08-05T04:47:48.034Z,18.38
2022-08-05T04:48:27.273Z,17.92
2022-08-05T04:49:03.323Z,18.80
2022-08-05T04:50:01.381Z,18.23
2022-08-05T04:50:37.443Z,18.88
2022-08-05T04:51:30.632Z,18.10
2022-08-05T04:52:04.882Z,17.42
2022-08-05T04:52:42.191Z,17.67
2022-08-05T04:53:19.791Z,18.58
2022-08-05T04:53:54.376Z,17.92
2022-08-05T04:54:29.153Z,18.55
2022-08-05T04:55:13.803Z,17.50
2022-08-05T04:56:15.530Z,18.42
2022-08-05T04:56:44.472Z,17.35
2022-08-05T04:57:18.897Z,17.48
2022-08-05T04:57:54.291Z,18.38
2022-08-05T04:58:30.476Z,17.33
2022-08-05T04:59:13.969Z,18.05
2022-08-05T04:59:59.866Z,17.65
2022-08-05T05:00:33.938Z,17.65
2022-08-05T05:01:08.243Z,17.67
2022-08-05T05:02:35.473Z,18.17
2022-08-05T05:02:41.923Z,17.58
2022-08-05T05:03:20.541Z,17.10
2022-08-05T05:03:55.022Z,19.08
2022-08-05T05:04:32.066Z,18.58
2022-08-05T05:05:26.209Z,17.55
2022-08-05T05:06:36.632Z,16.33
2022-08-05T05:06:57.702Z,16.92
2022-08-05T05:07:35.334Z,17.98
2022-08-05T05:08:14.338Z,17.25
2022-08-05T05:09:01.236Z,16.55
2022-08-05T05:09:41.531Z,17.10
2022-08-05T05:10:16.520Z,17.20
2022-08-05T05:10:56.369Z,17.70
2022-08-05T05:11:41.532Z,17.27
2022-08-05T05:12:27.372Z,16.25
2022-08-05T05:13:04.362Z,16.55
2022-08-05T05:13:42.966Z,17.88
2022-08-05T05:14:19.071Z,17.42
2022-08-05T05:15:10.758Z,16.55
2022-08-05T05:15:56.405Z,17.00
2022-08-05T05:16:33.886Z,16.98
2022-08-05T05:17:09.499Z,16.70
2022-08-05T05:17:56.764Z,16.05
2022-08-05T05:18:34.291Z,16.88
2022-08-05T05:19:18.996Z,16.65
2022-08-05T05:19:56.441Z,16.45
2022-08-05T05:20:31.905Z,17.48
2022-08-05T05:21:07.957Z,16.52
2022-08-05T05:21:43.489Z,16.60
2022-08-05T05:22:24.169Z,17.30
2022-08-05T05:23:06.801Z,17.00
2022-08-05T05:24:03.828Z,16.75
2022-08-05T05:24:56.105Z,17.25
2022-08-05T05:25:41.147Z,16.70
2022-08-05T05:26:15.800Z,16.92
2022-08-05T05:26:51.903Z,16.58
2022-08-05T05:27:41.791Z,17.10
2022-08-05T05:28:20.835Z,16.70
2022-08-05T05:28:55.924Z,17.58
2022-08-05T05:30:03.551Z,17.60
2022-08-05T05:30:29.702Z,16.88
2022-08-05T05:32:15.714Z,17.05
2022-08-05T05:32:52.914Z,16.70
2022-08-05T05:33:28.740Z,16.42
2022-08-05T05:34:27.058Z,16.55
2022-08-05T05:35:03.192Z,16.48
2022-08-05T05:35:39.762Z,17.55
2022-08-05T05:36:17.653Z,16.92
2022-08-05T05:36:54.036Z,17.00
2022-08-05T05:37:29.264Z,17.30
2022-08-05T05:38:27.155Z,17.50
2022-08-05T05:39:03.876Z,17.20
2022-08-05T05:39:39.143Z,16.50
2022-08-05T05:40:19.736Z,17.17
2022-08-05T05:40:55.066Z,17.67
2022-08-05T05:41:40.802Z,18.02
2022-08-05T05:42:17.772Z,16.92
2022-08-05T05:42:55.317Z,16.63
2022-08-05T05:43:57.215Z,17.33
2022-08-05T05:44:36.593Z,16.17
2022-08-05T05:45:14.165Z,16.20
2022-08-05T05:45:49.397Z,16.33
2022-08-05T05:46:24.700Z,16.55
2022-08-05T05:47:04.612Z,16.58
2022-08-05T05:48:06.781Z,16.42
2022-08-05T05:48:44.816Z,17.05
2022-08-05T05:49:22.624Z,16.15
2022-08-05T05:50:01.752Z,17.90
2022-08-05T05:50:44.534Z,16.77
2022-08-05T05:51:24.025Z,15.85
2022-08-05T05:51:58.525Z,16.88
2022-08-05T05:52:37.979Z,16.77
2022-08-05T05:53:21.244Z,16.63
2022-08-05T05:53:59.920Z,15.52
2022-08-05T05:54:50.427Z,16.98
2022-08-05T05:56:03.084Z,15.68
2022-08-05T05:56:38.408Z,15.90
2022-08-05T05:57:15.027Z,15.68
2022-08-05T05:58:32.056Z,15.95
2022-08-05T05:59:07.978Z,15.80
2022-08-05T05:59:43.527Z,16.17
2022-08-05T06:00:19.466Z,15.43
2022-08-05T06:00:55.007Z,15.98
2022-08-05T06:01:37.065Z,14.90
2022-08-05T06:02:13.396Z,14.82
2022-08-05T06:02:50.394Z,14.75
2022-08-05T06:03:40.182Z,15.32
2022-08-05T06:04:20.005Z,14.82
2022-08-05T06:04:58.487Z,15.65
2022-08-05T06:05:36.541Z,15.32
2022-08-05T06:06:12.029Z,15.95
2022-08-05T06:06:48.749Z,15.85
2022-08-05T06:07:24.151Z,15.55
2022-08-05T06:08:31.527Z,14.95
2022-08-05T06:09:08.266Z,16.88
2022-08-05T06:10:00.124Z,15.65
2022-08-05T06:10:37.590Z,14.90
2022-08-05T06:11:28.874Z,17.40
2022-08-05T06:12:03.798Z,17.35
2022-08-05T06:12:42.279Z,18.88
2022-08-05T06:13:16.504Z,15.77
2022-08-05T06:13:53.953Z,16.58
2022-08-05T06:14:31.369Z,15.57
2022-08-05T06:15:08.132Z,18.17
2022-08-05T06:16:29.865Z,22.23
2022-08-05T06:16:38.589Z,14.05
2022-08-05T06:17:22.407Z,14.13
2022-08-05T06:17:59.266Z,14.55
2022-08-05T06:18:36.557Z,15.05
2022-08-05T06:19:13.172Z,15.23
2022-08-05T06:20:21.382Z,18.33
2022-08-05T06:20:55.828Z,15.00
2022-08-05T06:21:36.734Z,15.35
2022-08-05T06:22:12.484Z,15.57
2022-08-05T06:22:49.202Z,15.50
2022-08-05T06:23:25.387Z,14.52
2022-08-05T06:24:11.502Z,14.57
2022-08-05T06:24:48.822Z,14.93
2022-08-05T06:26:12.201Z,15.07
2022-08-05T06:26:21.593Z,14.98
2022-08-05T06:27:00.921Z,14.35
2022-08-05T06:28:12.713Z,14.00
2022-08-05T06:28:30.849Z,13.95
2022-08-05T06:29:23.485Z,14.50
2022-08-05T06:30:04.349Z,13.73
2022-08-05T06:30:51.653Z,14.07
2022-08-05T06:31:30.406Z,13.98
2022-08-05T06:32:24.792Z,14.20
2022-08-05T06:33:01.107Z,14.15
2022-08-05T06:34:06.231Z,14.05
2022-08-05T06:34:29.943Z,17.48
2022-08-05T06:35:05.963Z,13.60
2022-08-05T06:36:07.318Z,14.02
2022-08-05T06:36:56.925Z,14.10
2022-08-05T06:37:56.370Z,15.23
2022-08-05T06:38:36.543Z,25.80
2022-08-05T06:39:10.415Z,37.78
2022-08-05T06:39:45.166Z,20.25
2022-08-05T06:40:21.508Z,15.50
2022-08-05T06:41:02.829Z,12.93
2022-08-05T06:41:41.290Z,13.48
2022-08-05T06:42:17.622Z,13.40
2022-08-05T06:42:55.021Z,13.70
2022-08-05T06:43:57.714Z,14.55
2022-08-05T06:44:25.134Z,12.90
2022-08-05T06:45:05.501Z,12.85
2022-08-05T06:46:03.635Z,12.00
2022-08-05T06:46:39.090Z,12.52
2022-08-05T06:48:11.359Z,13.13
2022-08-05T06:48:36.112Z,12.90
2022-08-05T06:49:06.331Z,11.00
2022-08-05T06:50:00.591Z,12.18
2022-08-05T06:50:37.857Z,12.45
2022-08-05T06:51:23.952Z,16.13
2022-08-05T06:52:04.858Z,13.68
2022-08-05T06:52:40.296Z,11.63
2022-08-05T06:53:24.393Z,11.65
2022-08-05T06:54:05.537Z,11.85
2022-08-05T06:54:42.804Z,11.57
2022-08-05T06:55:18.325Z,10.95
2022-08-05T06:55:53.024Z,12.43
2022-08-05T06:56:28.560Z,11.57
2022-08-05T06:57:56.795Z,11.02
2022-08-05T06:58:19.708Z,11.50
2022-08-05T06:58:53.543Z,11.20
2022-08-05T06:59:28.648Z,11.07
2022-08-05T07:00:14.998Z,9.93
2022-08-05T07:00:56.764Z,10.43
2022-08-05T07:01:32.313Z,10.40
2022-08-05T07:02:06.709Z,11.43
2022-08-05T07:02:43.834Z,11.35
2022-08-05T07:03:19.571Z,10.98
2022-08-05T07:04:02.270Z,11.35
2022-08-05T07:04:38.855Z,10.93
2022-08-05T07:05:15.318Z,13.05
2022-08-05T07:05:53.519Z,10.98
2022-08-05T07:06:34.585Z,10.65
2022-08-05T07:07:09.928Z,9.38
2022-08-05T07:07:46.096Z,10.30
2022-08-05T07:08:25.105Z,9.80
2022-08-05T07:09:00.073Z,9.98
2022-08-05T07:09:43.276Z,10.32
2022-08-05T07:10:17.468Z,11.15
2022-08-05T07:10:53.929Z,10.35
2022-08-05T07:11:30.037Z,10.43
2022-08-05T07:12:07.544Z,9.60
2022-08-05T07:12:57.453Z,9.35
2022-08-05T07:13:58.549Z,10.88
2022-08-05T07:14:51.516Z,9.48
2022-08-05T07:16:00.740Z,9.95
2022-08-05T07:17:59.875Z,9.50
2022-08-05T07:18:08.337Z,8.90
2022-08-05T07:18:47.940Z,9.23
2022-08-05T07:20:05.736Z,8.35
2022-08-05T07:20:38.939Z,8.05
2022-08-05T07:21:15.220Z,7.85
2022-08-05T07:22:01.611Z,7.82
2022-08-05T07:22:38.593Z,8.80
2022-08-05T07:23:26.100Z,7.45
2022-08-05T07:24:02.510Z,7.43
2022-08-05T07:24:43.697Z,6.53
2022-08-05T07:25:55.983Z,6.80
2022-08-05T07:26:24.875Z,7.20
2022-08-05T07:27:02.934Z,6.68
2022-08-05T07:27:56.341Z,6.30
2022-08-05T07:28:33.271Z,6.72
2022-08-05T07:29:07.141Z,7.38
2022-08-05T07:30:27.132Z,6.40
2022-08-05T07:30:38.780Z,7.15
2022-08-05T07:31:16.174Z,6.65
2022-08-05T07:31:54.760Z,6.57
2022-08-05T07:32:30.548Z,5.80
2022-08-05T07:33:09.530Z,5.88
2022-08-05T07:33:43.908Z,5.90
2022-08-05T07:34:21.253Z,6.28
2022-08-05T07:34:59.165Z,6.10
2022-08-05T07:36:02.372Z,6.35
2022-08-05T07:36:30.706Z,6.40
2022-08-05T07:37:06.658Z,6.07
2022-08-05T07:37:44.924Z,6.90
2022-08-05T07:38:32.037Z,6.20
2022-08-05T07:40:04.696Z,6.35
2022-08-05T07:40:26.888Z,6.03
2022-08-05T07:41:16.628Z,6.07
2022-08-05T07:42:13.302Z,6.53
2022-08-05T07:42:50.124Z,6.05
2022-08-05T07:43:24.633Z,5.90
2022-08-05T07:44:01.171Z,6.22
2022-08-05T07:44:34.807Z,7.32
2022-08-05T07:45:11.433Z,6.22
2022-08-05T07:45:57.286Z,6.63
2022-08-05T07:46:33.902Z,6.07
2022-08-05T07:47:10.142Z,6.47
2022-08-05T07:47:48.266Z,5.70
2022-08-05T07:49:01.421Z,7.25
2022-08-05T07:49:30.509Z,5.80
2022-08-05T07:50:06.701Z,6.20
2022-08-05T07:50:42.101Z,5.70
2022-08-05T07:51:23.578Z,5.63
2022-08-05T07:52:14.686Z,5.88
2022-08-05T07:52:49.689Z,6.18
2022-08-05T07:53:23.925Z,5.97
2022-08-05T07:54:12.890Z,5.65
2022-08-05T07:54:47.640Z,5.68
2022-08-05T07:56:04.664Z,5.47
2022-08-05T07:56:59.865Z,4.95
2022-08-05T07:57:23.659Z,5.65
2022-08-05T07:58:11.133Z,5.40
2022-08-05T07:59:04.438Z,5.25
2022-08-05T07:59:43.879Z,5.45
2022-08-05T08:00:27.309Z,5.50
2022-08-05T08:01:06.183Z,5.88
2022-08-05T08:01:52.487Z,5.90
2022-08-05T08:03:13.838Z,5.65
2022-08-05T08:03:44.317Z,5.88
2022-08-05T08:04:22.973Z,5.25
2022-08-05T08:05:12.668Z,4.93
2022-08-05T08:05:51.612Z,5.45
2022-08-05T08:06:28.331Z,5.25
2022-08-05T08:07:05.603Z,5.28
2022-08-05T08:08:00.168Z,5.35
2022-08-05T08:08:36.485Z,5.40
2022-08-05T08:09:11.692Z,5.80
2022-08-05T08:09:47.349Z,5.57
2022-08-05T08:10:23.879Z,5.50
2022-08-05T08:11:01.513Z,5.50
2022-08-05T08:11:47.176Z,5.72
2022-08-05T08:12:48.630Z,5.90
2022-08-05T08:13:28.951Z,5.30
2022-08-05T08:14:04.817Z,5.70
2022-08-05T08:14:40.978Z,5.80
2022-08-05T08:15:18.150Z,5.32
2022-08-05T08:16:35.563Z,5.70
2022-08-05T08:17:16.173Z,5.82
2022-08-05T08:17:53.055Z,6.07
2022-08-05T08:18:28.940Z,5.68
2022-08-05T08:19:02.882Z,5.97
2022-08-05T08:20:22.360Z,6.03
2022-08-05T08:20:45.140Z,5.35
2022-08-05T08:21:27.316Z,5.85
2022-08-05T08:22:03.315Z,5.60
2022-08-05T08:22:38.488Z,6.28
2022-08-05T08:24:01.541Z,5.95
2022-08-05T08:24:13.741Z,5.68
2022-08-05T08:24:51.547Z,5.68
2022-08-05T08:26:00.596Z,5.72
2022-08-05T08:26:29.718Z,5.50
2022-08-05T08:27:07.141Z,5.57
2022-08-05T08:27:47.940Z,5.88
2022-08-05T08:28:37.122Z,5.60
2022-08-05T08:29:45.326Z,6.03
2022-08-05T08:30:29.635Z,5.35
2022-08-05T08:31:09.712Z,5.53
2022-08-05T08:31:50.044Z,6.65
2022-08-05T08:32:28.022Z,5.47
2022-08-05T08:33:04.800Z,5.70
2022-08-05T08:33:42.685Z,8.20
2022-08-05T08:34:30.286Z,10.63
2022-08-05T08:35:13.399Z,6.95
2022-08-05T08:35:52.441Z,6.20
2022-08-05T08:36:29.827Z,5.75
2022-08-05T08:37:18.825Z,5.75
2022-08-05T08:37:56.336Z,5.95
2022-08-05T08:38:35.781Z,6.18
2022-08-05T08:39:15.430Z,6.75
2022-08-05T08:39:50.918Z,5.60
2022-08-05T08:40:26.293Z,5.55
2022-08-05T08:41:01.620Z,5.57
2022-08-05T08:41:51.965Z,6.22
2022-08-05T08:42:34.150Z,5.63
2022-08-05T08:45:01.571Z,5.57
2022-08-05T08:45:19.143Z,6.60
2022-08-05T08:45:19.237Z,5.97
2022-08-05T08:45:59.767Z,5.80
2022-08-05T08:46:34.105Z,5.70
2022-08-05T08:47:47.423Z,5.93
2022-08-05T08:48:23.139Z,5.80
2022-08-05T08:50:06.160Z,5.70
2022-08-05T08:50:22.290Z,6.00
2022-08-05T08:51:07.763Z,5.78
2022-08-05T08:52:03.171Z,6.70
2022-08-05T08:52:41.424Z,6.05
2022-08-05T08:53:22.360Z,5.75
2022-08-05T08:53:58.282Z,6.45
2022-08-05T08:54:36.455Z,5.95
2022-08-05T08:55:13.287Z,6.15
2022-08-05T08:56:03.556Z,5.82
2022-08-05T08:56:47.393Z,5.72
2022-08-05T08:57:24.985Z,6.35
2022-08-05T08:58:26.029Z,6.43
2022-08-05T08:59:14.887Z,5.57
2022-08-05T08:59:56.107Z,5.45
2022-08-05T09:00:31.903Z,6.45
2022-08-05T09:01:07.729Z,6.20
2022-08-05T09:01:46.817Z,6.53
2022-08-05T09:02:31.790Z,6.40
2022-08-05T09:03:10.522Z,7.07
2022-08-05T09:03:45.801Z,6.10
2022-08-05T09:04:20.657Z,5.82
2022-08-05T09:05:16.525Z,6.50
2022-08-05T09:06:09.103Z,8.75
2022-08-05T09:06:46.405Z,38.10
2022-08-05T09:07:28.767Z,28.33